Time,TemperatureF,DewpointF,PressureIn,WindDirection,WindDirectionDegrees,WindSpeedMPH,WindSpeedGustMPH,Humidity,HourlyPrecipIn,Conditions,Clouds,dailyrainin,SoftwareType,DateUTC
2013-08-31 00:14:00,71.0,69.0,29.70,North,5,0.0,-999.0,92,-99.99,,,-99.99,,2013-08-31 04:14:00,
2013-08-31 00:24:00,70.0,68.0,29.71,NNE,18,0.0,-999.0,92,-99.99,,,-99.99,,2013-08-31 04:24:00,
2013-08-31 00:54:00,69.0,67.0,29.72,NE,49,0.0,-999.0,92,-99.99,,,-99.99,,2013-08-31 04:54:00,
2013-08-31 01:13:00,69.0,67.0,29.72,East,80,0.0,-999.0,92,-99.99,,,-99.99,,2013-08-31 05:13:00,
2013-08-31 01:23:00,69.0,66.0,29.73,NE,37,0.0,-999.0,91,-99.99,,,-99.99,,2013-08-31 05:23:00,
2013-08-31 01:42:00,69.0,66.0,29.74,NNE,16,0.0,-999.0,91,-99.99,,,-99.99,,2013-08-31 05:42:00,
2013-08-31 01:52:00,68.0,65.0,29.74,NNE,16,0.0,-999.0,90,-99.99,,,-99.99,,2013-08-31 05:52:00,
2013-08-31 02:12:00,68.0,66.0,29.74,NNE,16,0.0,-999.0,92,-99.99,,,-99.99,,2013-08-31 06:12:00,
2013-08-31 02:22:00,68.0,66.0,29.73,NNE,16,0.0,-999.0,92,-99.99,,,-99.99,,2013-08-31 06:22:00,
2013-08-31 02:52:00,67.0,65.0,29.72,NNE,16,0.0,-999.0,93,-99.99,,,-99.99,,2013-08-31 06:52:00,
2013-08-31 03:12:00,66.0,64.0,29.72,NNE,16,0.0,-999.0,94,-99.99,,,-99.99,,2013-08-31 07:12:00,
2013-08-31 03:22:00,66.0,64.0,29.72,NNE,16,0.0,-999.0,94,-99.99,,,-99.99,,2013-08-31 07:22:00,
2013-08-31 03:52:00,65.0,64.0,29.72,NNE,16,0.0,-999.0,95,-99.99,,,-99.99,,2013-08-31 07:52:00,
2013-08-31 04:12:00,65.0,64.0,29.72,NNE,16,0.0,-999.0,95,-99.99,,,-99.99,,2013-08-31 08:12:00,
2013-08-31 04:22:00,64.0,63.0,29.72,NNE,16,0.0,-999.0,96,-99.99,,,-99.99,,2013-08-31 08:22:00,
2013-08-31 04:42:00,64.0,63.0,29.73,NNE,16,0.0,-999.0,96,-99.99,,,-99.99,,2013-08-31 08:42:00,
2013-08-31 04:52:00,64.0,63.0,29.73,NNE,16,0.0,-999.0,96,-99.99,,,-99.99,,2013-08-31 08:52:00,
2013-08-31 05:12:00,64.0,63.0,29.74,NNE,16,0.0,-999.0,96,-99.99,,,-99.99,,2013-08-31 09:12:00,
2013-08-31 05:23:00,64.0,63.0,29.73,NNE,16,0.0,-999.0,96,-99.99,,,-99.99,,2013-08-31 09:23:00,
2013-08-31 05:53:00,63.0,62.0,29.74,NNE,16,0.0,-999.0,97,-99.99,,,-99.99,,2013-08-31 09:53:00,
2013-08-31 06:13:00,63.0,62.0,29.74,NNE,16,0.0,-999.0,96,-99.99,,,-99.99,,2013-08-31 10:13:00,
2013-08-31 06:23:00,63.0,62.0,29.75,NNE,16,0.0,-999.0,97,-99.99,,,-99.99,,2013-08-31 10:23:00,
2013-08-31 06:43:00,63.0,62.0,29.75,NNE,16,0.0,-999.0,97,-99.99,,,-99.99,,2013-08-31 10:43:00,
2013-08-31 06:53:00,64.0,63.0,29.76,NNE,19,0.0,-999.0,97,-99.99,,,-99.99,,2013-08-31 10:53:00,
2013-08-31 07:12:00,64.0,63.0,29.76,NNE,19,0.0,-999.0,98,-99.99,,,-99.99,,2013-08-31 11:12:00,
2013-08-31 07:22:00,64.0,63.0,29.75,NNE,19,0.0,-999.0,98,-99.99,,,-99.99,,2013-08-31 11:22:00,
2013-08-31 07:52:00,65.0,64.0,29.75,NNE,19,0.0,-999.0,98,-99.99,,,-99.99,,2013-08-31 11:52:00,
2013-08-31 08:12:00,65.0,64.0,29.75,NNE,19,0.0,-999.0,97,-99.99,,,-99.99,,2013-08-31 12:12:00,
2013-08-31 08:22:00,65.0,64.0,29.75,NNE,19,0.0,-999.0,97,-99.99,,,-99.99,,2013-08-31 12:22:00,
2013-08-31 08:42:00,66.0,65.0,29.76,NNE,19,0.0,-999.0,98,-99.99,,,-99.99,,2013-08-31 12:42:00,
2013-08-31 08:52:00,66.0,65.0,29.76,NNE,19,0.0,-999.0,98,-99.99,,,-99.99,,2013-08-31 12:52:00,
2013-08-31 09:11:00,66.0,65.0,29.77,NNE,19,0.0,-999.0,98,-99.99,,,-99.99,,2013-08-31 13:11:00,
2013-08-31 09:22:00,67.0,66.0,29.78,NNE,19,0.0,-999.0,98,-99.99,,,-99.99,,2013-08-31 13:22:00,
2013-08-31 09:42:00,67.0,66.0,29.77,East,83,0.0,-999.0,98,-99.99,,,-99.99,,2013-08-31 13:42:00,
2013-08-31 09:52:00,67.0,66.0,29.77,NE,54,0.0,-999.0,97,-99.99,,,-99.99,,2013-08-31 13:52:00,
2013-08-31 10:12:00,68.0,67.0,29.77,NW,322,0.0,-999.0,96,-99.99,,,-99.99,,2013-08-31 14:12:00,
2013-08-31 10:22:00,69.0,66.0,29.77,North,5,0.0,-999.0,91,-99.99,,,-99.99,,2013-08-31 14:22:00,
2013-08-31 10:52:00,72.0,67.0,29.78,SSE,147,1.0,-999.0,84,-99.99,,,-99.99,,2013-08-31 14:52:00,
2013-08-31 11:12:00,73.0,67.0,29.78,East,88,1.0,-999.0,81,-99.99,,,-99.99,,2013-08-31 15:12:00,
2013-08-31 11:23:00,73.0,66.0,29.78,NE,40,0.0,-999.0,80,-99.99,,,-99.99,,2013-08-31 15:23:00,
2013-08-31 11:55:00,73.0,66.0,29.78,ENE,62,1.0,-999.0,78,-99.99,,,-99.99,,2013-08-31 15:55:00,
2013-08-31 12:14:00,73.0,66.0,29.77,NNE,28,0.0,-999.0,78,-99.99,,,-99.99,,2013-08-31 16:14:00,
2013-08-31 12:25:00,73.0,65.0,29.78,NNE,13,0.0,-999.0,76,-99.99,,,-99.99,,2013-08-31 16:25:00,
2013-08-31 12:44:00,73.0,66.0,29.79,ESE,103,0.0,-999.0,79,-99.99,,,-99.99,,2013-08-31 16:44:00,
2013-08-31 12:52:00,73.0,65.0,29.78,NE,51,0.0,-999.0,77,-99.99,,,-99.99,,2013-08-31 16:52:00,
2013-08-31 13:13:00,74.0,66.0,29.79,ENE,68,0.0,-999.0,75,-99.99,,,-99.99,,2013-08-31 17:13:00,
2013-08-31 13:23:00,74.0,67.0,29.78,ENE,67,0.0,-999.0,78,-99.99,,,-99.99,,2013-08-31 17:23:00,
2013-08-31 13:43:00,74.0,67.0,29.78,NNE,19,0.0,-999.0,78,-99.99,,,-99.99,,2013-08-31 17:43:00,
2013-08-31 13:53:00,76.0,68.0,29.78,NE,37,0.0,-999.0,77,-99.99,,,-99.99,,2013-08-31 17:53:00,
2013-08-31 14:13:00,78.0,68.0,29.78,NNE,22,0.0,-999.0,72,-99.99,,,-99.99,,2013-08-31 18:13:00,
2013-08-31 14:22:00,78.0,68.0,29.78,NNE,29,0.0,-999.0,71,-99.99,,,-99.99,,2013-08-31 18:22:00,
2013-08-31 14:52:00,76.0,67.0,29.78,ENE,72,0.0,-999.0,73,-99.99,,,-99.99,,2013-08-31 18:52:00,
2013-08-31 15:12:00,76.0,67.0,29.78,ENE,59,0.0,-999.0,73,-99.99,,,-99.99,,2013-08-31 19:12:00,
2013-08-31 15:22:00,77.0,67.0,29.78,NE,40,0.0,-999.0,72,-99.99,,,-99.99,,2013-08-31 19:22:00,
2013-08-31 15:52:00,77.0,66.0,29.77,SE,130,0.0,-999.0,70,-99.99,,,-99.99,,2013-08-31 19:52:00,
2013-08-31 16:12:00,78.0,67.0,29.77,East,97,0.0,-999.0,68,-99.99,,,-99.99,,2013-08-31 20:12:00,
2013-08-31 16:22:00,78.0,66.0,29.77,NNE,28,0.0,-999.0,67,-99.99,,,-99.99,,2013-08-31 20:22:00,
2013-08-31 16:42:00,78.0,67.0,29.77,NNE,27,0.0,-999.0,70,-99.99,,,-99.99,,2013-08-31 20:42:00,
2013-08-31 16:52:00,78.0,67.0,29.76,NE,49,0.0,-999.0,69,-99.99,,,-99.99,,2013-08-31 20:52:00,
2013-08-31 17:12:00,78.0,66.0,29.76,NE,53,0.0,-999.0,67,-99.99,,,-99.99,,2013-08-31 21:12:00,
2013-08-31 17:22:00,79.0,68.0,29.76,North,5,0.0,-999.0,70,-99.99,,,-99.99,,2013-08-31 21:22:00,
2013-08-31 17:54:00,77.0,66.0,29.75,NE,38,0.0,-999.0,69,-99.99,,,-99.99,,2013-08-31 21:54:00,
2013-08-31 18:13:00,77.0,67.0,29.74,North,5,0.0,-999.0,71,-99.99,,,-99.99,,2013-08-31 22:13:00,
2013-08-31 18:24:00,78.0,67.0,29.74,East,88,0.0,-999.0,69,-99.99,,,-99.99,,2013-08-31 22:24:00,
2013-08-31 18:53:00,77.0,66.0,29.73,SSE,147,0.0,-999.0,68,-99.99,,,-99.99,,2013-08-31 22:53:00,
2013-08-31 19:23:00,78.0,67.0,29.73,NE,43,0.0,-999.0,68,-99.99,,,-99.99,,2013-08-31 23:23:00,
2013-08-31 19:52:00,77.0,67.0,29.73,NE,43,0.0,-999.0,72,-99.99,,,-99.99,,2013-08-31 23:52:00,
2013-08-31 20:11:00,75.0,66.0,29.73,NE,43,0.0,-999.0,74,-99.99,,,-99.99,,2013-09-01 00:11:00,
2013-08-31 20:22:00,74.0,66.0,29.73,NE,43,0.0,-999.0,77,-99.99,,,-99.99,,2013-09-01 00:22:00,
2013-08-31 20:42:00,72.0,66.0,29.73,NE,43,0.0,-999.0,81,-99.99,,,-99.99,,2013-09-01 00:42:00,
2013-08-31 20:52:00,71.0,66.0,29.73,NE,43,0.0,-999.0,83,-99.99,,,-99.99,,2013-09-01 00:52:00,
2013-08-31 21:11:00,69.0,65.0,29.73,NE,43,0.0,-999.0,86,-99.99,,,-99.99,,2013-09-01 01:11:00,
2013-08-31 21:22:00,68.0,64.0,29.73,NE,43,0.0,-999.0,88,-99.99,,,-99.99,,2013-09-01 01:22:00,
2013-08-31 21:42:00,68.0,65.0,29.74,NE,43,0.0,-999.0,90,-99.99,,,-99.99,,2013-09-01 01:42:00,
2013-08-31 21:52:00,67.0,65.0,29.75,NE,43,0.0,-999.0,92,-99.99,,,-99.99,,2013-09-01 01:52:00,
2013-08-31 22:12:00,67.0,65.0,29.75,NE,43,0.0,-999.0,92,-99.99,,,-99.99,,2013-09-01 02:12:00,
2013-08-31 22:23:00,66.0,64.0,29.75,NE,43,0.0,-999.0,93,-99.99,,,-99.99,,2013-09-01 02:23:00,
2013-08-31 22:43:00,66.0,64.0,29.75,NE,43,0.0,-999.0,94,-99.99,,,-99.99,,2013-09-01 02:43:00,
2013-08-31 22:53:00,66.0,64.0,29.75,NE,43,0.0,-999.0,94,-99.99,,,-99.99,,2013-09-01 02:53:00,
2013-08-31 23:23:00,66.0,65.0,29.77,NE,43,0.0,-999.0,95,-99.99,,,-99.99,,2013-09-01 03:23:00,
2013-08-31 23:54:00,66.0,65.0,29.79,NE,43,0.0,-999.0,96,-99.99,,,-99.99,,2013-09-01 03:54:00,